createdAt,value
2018-12-19T00:00:04.285Z,80.87
2018-12-19T00:02:32.620Z,79.97
2018-12-19T00:05:01.495Z,82.47
2018-12-19T00:07:29.796Z,79.83
2018-12-19T00:09:58.504Z,75.50
2018-12-19T00:12:26.830Z,75.20
2018-12-19T00:14:55.157Z,74.10
2018-12-19T00:17:23.498Z,72.33
2018-12-19T00:19:51.822Z,71.40
2018-12-19T00:22:20.156Z,75.23
2018-12-19T00:24:48.499Z,75.57
2018-12-19T00:27:16.846Z,76.03
2018-12-19T00:29:45.169Z,75.37
2018-12-19T00:32:13.503Z,71.67
2018-12-19T00:34:41.846Z,75.77
2018-12-19T00:37:10.243Z,70.83
2018-12-19T00:39:38.568Z,75.57
2018-12-19T00:42:06.903Z,73.60
2018-12-19T00:44:35.240Z,72.97
2018-12-19T00:47:03.573Z,78.00
2018-12-19T00:49:31.897Z,76.87
2018-12-19T00:52:00.227Z,76.87
2018-12-19T00:54:28.576Z,74.90
2018-12-19T00:56:56.896Z,76.93
2018-12-19T00:59:25.223Z,77.63
2018-12-19T01:01:53.570Z,76.40
2018-12-19T01:04:21.882Z,78.40
2018-12-19T01:06:50.217Z,81.37
2018-12-19T01:09:18.543Z,77.03
2018-12-19T01:11:47.185Z,76.10
2018-12-19T01:14:15.512Z,75.73
2018-12-19T01:16:43.837Z,77.30
2018-12-19T01:19:12.167Z,79.87
2018-12-19T01:21:40.500Z,76.90
2018-12-19T01:24:08.846Z,72.90
2018-12-19T01:26:37.176Z,81.07
2018-12-19T01:29:05.502Z,81.70
2018-12-19T01:31:33.836Z,74.20
2018-12-19T01:34:02.170Z,77.77
2018-12-19T01:36:30.506Z,79.23
2018-12-19T01:38:58.829Z,79.57
2018-12-19T01:41:27.169Z,80.70
2018-12-19T01:43:55.492Z,88.10
2018-12-19T01:46:23.814Z,82.57
2018-12-19T01:48:52.145Z,80.90
2018-12-19T01:51:20.480Z,84.27
2018-12-19T01:53:48.811Z,78.33
2018-12-19T01:56:17.139Z,80.57
2018-12-19T01:58:45.476Z,82.80
2018-12-19T02:01:13.799Z,81.07
2018-12-19T02:03:42.136Z,79.20
2018-12-19T02:06:10.462Z,82.70
2018-12-19T02:08:38.806Z,76.80
2018-12-19T02:11:07.148Z,82.00
2018-12-19T02:13:35.476Z,79.17
2018-12-19T02:16:03.801Z,77.00
2018-12-19T02:18:32.129Z,79.00
2018-12-19T02:21:01.431Z,80.63
2018-12-19T02:23:29.761Z,79.83
2018-12-19T02:25:58.103Z,77.97
2018-12-19T02:28:26.419Z,82.37
2018-12-19T02:30:54.766Z,78.60
2018-12-19T02:33:23.100Z,75.20
2018-12-19T02:35:51.426Z,77.70
2018-12-19T02:38:19.763Z,81.83
2018-12-19T02:40:48.099Z,77.20
2018-12-19T02:43:16.423Z,78.47
2018-12-19T02:45:44.743Z,75.27
2018-12-19T02:48:13.094Z,80.80
2018-12-19T02:50:41.426Z,80.17
2018-12-19T02:53:09.753Z,75.20
2018-12-19T02:55:38.074Z,76.77
2018-12-19T02:58:06.407Z,78.73
2018-12-19T03:00:34.740Z,77.50
2018-12-19T03:03:03.066Z,80.77
2018-12-19T03:05:31.429Z,85.53
2018-12-19T03:07:59.723Z,78.57
2018-12-19T03:10:28.052Z,82.73
2018-12-19T03:12:56.378Z,82.67
2018-12-19T03:15:24.789Z,75.90
2018-12-19T03:17:53.109Z,77.03
2018-12-19T03:20:21.433Z,73.83
2018-12-19T03:22:49.771Z,74.10
2018-12-19T03:25:18.086Z,81.73
2018-12-19T03:27:46.440Z,75.30
2018-12-19T03:30:14.772Z,79.47
2018-12-19T03:32:43.093Z,80.13
2018-12-19T03:35:11.428Z,80.97
2018-12-19T03:37:39.763Z,79.03
2018-12-19T03:40:08.092Z,82.33
2018-12-19T03:42:36.421Z,82.23
2018-12-19T03:45:04.753Z,79.70
2018-12-19T03:47:33.078Z,79.17
2018-12-19T03:50:01.432Z,78.33
2018-12-19T03:52:29.954Z,83.90
2018-12-19T03:54:58.056Z,79.07
2018-12-19T03:57:26.387Z,83.57
2018-12-19T03:59:54.709Z,88.40
2018-12-19T04:02:23.049Z,87.43
2018-12-19T04:04:51.376Z,83.10
2018-12-19T04:07:19.704Z,86.53
2018-12-19T04:09:48.035Z,81.07
2018-12-19T04:12:16.357Z,85.33
2018-12-19T04:14:44.688Z,89.40
2018-12-19T04:17:13.019Z,91.03
2018-12-19T04:19:41.341Z,92.43
2018-12-19T04:22:09.667Z,88.00
2018-12-19T04:24:37.995Z,85.73
2018-12-19T04:27:06.323Z,87.20
2018-12-19T04:29:34.647Z,83.90
2018-12-19T04:32:02.986Z,88.23
2018-12-19T04:34:31.322Z,86.97
2018-12-19T04:36:59.649Z,90.87
2018-12-19T04:39:27.987Z,91.30
2018-12-19T04:41:56.316Z,86.73
2018-12-19T04:44:24.869Z,91.03
2018-12-19T04:46:52.971Z,90.17
2018-12-19T04:49:21.325Z,90.90
2018-12-19T04:51:49.661Z,86.73
2018-12-19T04:54:17.982Z,87.60
2018-12-19T04:56:46.338Z,88.93
2018-12-19T04:59:14.702Z,89.63
2018-12-19T05:01:43.050Z,86.97
2018-12-19T05:04:11.362Z,93.23
2018-12-19T05:06:39.692Z,89.57
2018-12-19T05:09:08.017Z,91.33
2018-12-19T05:11:36.361Z,92.20
2018-12-19T05:14:04.685Z,88.07
2018-12-19T05:16:33.043Z,92.70
2018-12-19T05:19:01.679Z,88.10
2018-12-19T05:21:30.020Z,93.17
2018-12-19T05:23:58.592Z,95.13
2018-12-19T05:26:26.692Z,93.97
2018-12-19T05:28:55.016Z,97.83
2018-12-19T05:31:23.365Z,93.50
2018-12-19T05:33:51.695Z,99.73
2018-12-19T05:36:20.039Z,104.70
2018-12-19T05:38:48.374Z,98.27
2018-12-19T05:41:16.709Z,94.77
2018-12-19T05:43:45.352Z,98.97
2018-12-19T05:46:13.676Z,97.67
2018-12-19T05:48:42.001Z,98.73
2018-12-19T05:51:10.337Z,98.93
2018-12-19T05:53:38.670Z,89.70
2018-12-19T05:56:07.003Z,88.70
2018-12-19T05:58:35.372Z,80.00
2018-12-19T06:01:03.685Z,85.23
2018-12-19T06:03:32.007Z,88.17
2018-12-19T06:06:00.343Z,81.33
2018-12-19T06:08:28.668Z,89.47
2018-12-19T06:10:57.000Z,84.83
2018-12-19T06:13:25.327Z,82.17
2018-12-19T06:15:53.658Z,85.27
2018-12-19T06:18:21.986Z,85.43
2018-12-19T06:20:50.315Z,82.30
2018-12-19T06:23:18.664Z,79.27
2018-12-19T06:25:46.991Z,80.43
2018-12-19T06:28:15.333Z,81.73
2018-12-19T06:30:43.674Z,84.87
2018-12-19T06:33:12.012Z,86.80
2018-12-19T06:35:40.336Z,81.50
2018-12-19T06:38:08.667Z,79.40
2018-12-19T06:40:37.000Z,89.43
2018-12-19T06:43:05.361Z,89.00
2018-12-19T06:45:33.679Z,86.03
2018-12-19T06:48:02.010Z,81.23
2018-12-19T06:50:30.351Z,84.70
2018-12-19T06:52:58.675Z,85.97
2018-12-19T06:55:27.002Z,82.23
2018-12-19T06:57:55.332Z,84.77
2018-12-19T07:00:23.664Z,80.33
2018-12-19T07:02:52.741Z,94.47
2018-12-19T07:05:21.166Z,84.40
2018-12-19T07:07:49.493Z,85.77
2018-12-19T07:10:17.839Z,84.60
2018-12-19T07:12:46.199Z,83.37
2018-12-19T07:15:14.542Z,86.67
2018-12-19T07:17:43.098Z,82.63
2018-12-19T07:20:11.203Z,86.10
2018-12-19T07:22:39.620Z,85.83
2018-12-19T07:25:07.961Z,90.57
2018-12-19T07:27:36.300Z,105.53
2018-12-19T07:30:04.910Z,124.33
2018-12-19T07:32:33.240Z,106.17
2018-12-19T07:35:01.588Z,92.37
2018-12-19T07:37:29.967Z,101.37
2018-12-19T07:39:58.268Z,96.57
2018-12-19T07:42:26.588Z,98.17
2018-12-19T07:44:54.921Z,89.60
2018-12-19T07:47:23.480Z,88.57
2018-12-19T07:49:51.585Z,94.53
2018-12-19T07:52:19.906Z,96.50
2018-12-19T07:54:48.249Z,143.40
2018-12-19T07:57:16.595Z,99.47
2018-12-19T07:59:44.939Z,97.00
2018-12-19T08:02:13.293Z,90.87
2018-12-19T08:04:41.623Z,92.60
2018-12-19T08:07:10.016Z,87.43
2018-12-19T08:09:38.383Z,88.67
2018-12-19T08:12:07.075Z,90.47
2018-12-19T08:14:35.421Z,89.03
2018-12-19T08:17:03.744Z,87.93
2018-12-19T08:19:32.113Z,89.63
2018-12-19T08:22:00.440Z,91.30
2018-12-19T08:24:28.779Z,84.43
2018-12-19T08:26:57.135Z,92.63
2018-12-19T08:29:25.472Z,93.27
2018-12-19T08:31:53.826Z,92.80
2018-12-19T08:34:22.150Z,96.27
2018-12-19T08:36:50.490Z,100.50
2018-12-19T08:39:18.834Z,87.30
2018-12-19T08:41:47.178Z,90.47
2018-12-19T08:44:15.511Z,95.33
2018-12-19T08:46:43.839Z,89.13
2018-12-19T08:49:12.165Z,89.90
2018-12-19T08:51:40.515Z,93.17
2018-12-19T08:54:08.850Z,93.87
2018-12-19T08:56:37.182Z,90.33
2018-12-19T08:59:05.508Z,92.63
2018-12-19T09:01:33.840Z,83.47
2018-12-19T09:04:02.185Z,82.27
2018-12-19T09:06:30.538Z,76.93
2018-12-19T09:08:58.882Z,81.30
2018-12-19T09:11:27.216Z,83.50
2018-12-19T09:13:55.864Z,74.73
2018-12-19T09:16:24.200Z,79.13
2018-12-19T09:18:52.525Z,74.47
2018-12-19T09:21:20.862Z,76.37
2018-12-19T09:23:49.189Z,77.70
2018-12-19T09:26:17.524Z,69.83
2018-12-19T09:28:45.887Z,75.23
2018-12-19T09:31:14.216Z,66.97
2018-12-19T09:33:42.801Z,72.43
2018-12-19T09:36:10.926Z,76.23
2018-12-19T09:38:39.251Z,66.33
2018-12-19T09:41:12.315Z,69.13
2018-12-19T09:43:35.920Z,63.00
2018-12-19T09:46:04.602Z,73.43
2018-12-19T09:48:32.943Z,64.40
2018-12-19T09:51:01.280Z,54.60
2018-12-19T09:53:29.613Z,69.20
2018-12-19T09:55:57.951Z,73.33
2018-12-19T09:58:26.295Z,70.70
2018-12-19T10:00:54.626Z,73.40
2018-12-19T10:03:22.957Z,66.77
2018-12-19T10:05:51.281Z,61.73
2018-12-19T10:08:19.615Z,69.50
2018-12-19T10:10:47.961Z,57.77
2018-12-19T10:13:16.287Z,66.27
2018-12-19T10:15:44.615Z,57.83
2018-12-19T10:18:13.915Z,60.37
2018-12-19T10:20:41.292Z,57.57
2018-12-19T10:23:09.625Z,56.80
2018-12-19T10:25:37.986Z,60.63
2018-12-19T10:28:06.309Z,60.97
2018-12-19T10:30:34.655Z,64.90
2018-12-19T10:33:02.987Z,66.03
2018-12-19T10:35:31.328Z,63.63
2018-12-19T10:37:59.665Z,63.17
2018-12-19T10:40:27.998Z,63.90
2018-12-19T10:42:56.645Z,64.60
2018-12-19T10:45:24.985Z,65.10
2018-12-19T10:47:53.321Z,66.40
2018-12-19T10:50:21.657Z,70.20
2018-12-19T10:52:49.977Z,69.20
2018-12-19T10:55:18.311Z,68.50
2018-12-19T10:57:46.644Z,71.20
2018-12-19T11:00:14.978Z,89.67
2018-12-19T11:02:43.306Z,81.93
2018-12-19T11:05:11.643Z,68.93
2018-12-19T11:07:39.982Z,75.93
2018-12-19T11:10:08.330Z,64.30
2018-12-19T11:12:36.658Z,64.87
2018-12-19T11:15:05.002Z,66.57
2018-12-19T11:17:33.327Z,57.23
2018-12-19T11:20:01.748Z,58.83
2018-12-19T11:22:30.090Z,52.47
2018-12-19T11:24:58.468Z,58.17
2018-12-19T11:27:26.797Z,55.40
2018-12-19T11:29:55.342Z,59.40
2018-12-19T11:32:23.676Z,55.33
2018-12-19T11:34:52.027Z,53.20
2018-12-19T11:37:20.364Z,51.00
2018-12-19T11:39:48.714Z,55.63
2018-12-19T11:42:17.031Z,52.27
2018-12-19T11:44:45.368Z,49.03
2018-12-19T11:47:13.690Z,44.37
2018-12-19T11:49:42.019Z,44.33
2018-12-19T11:52:10.377Z,43.43
2018-12-19T11:54:38.697Z,46.13
2018-12-19T11:57:07.036Z,43.37
2018-12-19T11:59:35.389Z,39.40
2018-12-19T12:02:03.716Z,45.33
2018-12-19T12:04:32.050Z,40.47
2018-12-19T12:07:00.405Z,40.17
2018-12-19T12:09:28.751Z,39.23
2018-12-19T12:11:57.099Z,41.17
2018-12-19T12:14:25.661Z,41.13
2018-12-19T12:16:53.781Z,42.23
2018-12-19T12:19:22.116Z,47.27
2018-12-19T12:21:50.460Z,49.17
2018-12-19T12:24:18.809Z,41.90
2018-12-19T12:26:47.136Z,40.83
2018-12-19T12:29:15.470Z,37.27
2018-12-19T12:31:44.314Z,40.87
2018-12-19T12:34:12.417Z,50.47
2018-12-19T12:36:40.749Z,40.40
2018-12-19T12:39:09.092Z,38.77
2018-12-19T12:41:37.414Z,37.63
2018-12-19T12:44:05.743Z,37.63
2018-12-19T12:46:34.079Z,42.30
2018-12-19T12:49:02.419Z,35.27
2018-12-19T12:51:31.097Z,44.40
2018-12-19T12:53:59.664Z,42.77
2018-12-19T12:56:27.860Z,37.60
2018-12-19T12:58:56.265Z,39.83
2018-12-19T13:01:24.546Z,39.70
2018-12-19T13:03:52.880Z,37.90
2018-12-19T13:06:21.213Z,37.70
2018-12-19T13:08:49.533Z,40.70
2018-12-19T13:11:17.876Z,47.90
2018-12-19T13:13:46.215Z,42.23
2018-12-19T13:16:14.563Z,37.97
2018-12-19T13:18:42.894Z,36.03
2018-12-19T13:21:11.234Z,37.13
2018-12-19T13:23:39.555Z,41.93
2018-12-19T13:26:07.920Z,37.10
2018-12-19T13:28:36.241Z,31.03
2018-12-19T13:31:04.598Z,32.70
2018-12-19T13:33:33.332Z,30.13
2018-12-19T13:36:01.438Z,30.87
2018-12-19T13:38:29.764Z,33.20
2018-12-19T13:40:58.323Z,37.27
2018-12-19T13:43:26.439Z,33.30
2018-12-19T13:45:54.776Z,34.73
2018-12-19T13:48:23.122Z,33.63
2018-12-19T13:50:51.464Z,34.83
2018-12-19T13:53:19.805Z,36.53
2018-12-19T13:55:48.147Z,33.33
2018-12-19T13:58:16.487Z,32.73
2018-12-19T14:00:44.809Z,33.40
2018-12-19T14:03:13.436Z,36.07
2018-12-19T14:05:41.800Z,33.93
2018-12-19T14:08:10.138Z,34.33
2018-12-19T14:10:38.468Z,43.00
2018-12-19T14:13:06.804Z,43.30
2018-12-19T14:15:35.138Z,43.63
2018-12-19T14:18:03.469Z,40.00
2018-12-19T14:20:31.806Z,47.97
2018-12-19T14:23:00.144Z,51.70
2018-12-19T14:25:28.518Z,49.90
2018-12-19T14:27:56.850Z,46.93
2018-12-19T14:30:25.519Z,47.47
2018-12-19T14:32:53.849Z,44.03
2018-12-19T14:35:22.213Z,47.90
2018-12-19T14:37:50.552Z,43.00
2018-12-19T14:40:18.906Z,49.37
2018-12-19T14:42:47.261Z,49.77
2018-12-19T14:45:15.599Z,47.83
2018-12-19T14:47:44.175Z,43.73
2018-12-19T14:50:12.286Z,48.70
2018-12-19T14:52:40.635Z,43.47
2018-12-19T14:55:09.664Z,46.50
2018-12-19T14:57:38.021Z,44.23
2018-12-19T15:00:06.362Z,47.07
2018-12-19T15:02:34.712Z,48.70
2018-12-19T15:05:03.107Z,45.00
2018-12-19T15:07:31.462Z,48.40
2018-12-19T15:09:59.829Z,44.50
2018-12-19T15:12:28.876Z,44.97
2018-12-19T15:14:57.233Z,44.40
2018-12-19T15:17:26.294Z,42.50
2018-12-19T15:19:54.631Z,41.20
2018-12-19T15:22:22.989Z,42.97
2018-12-19T15:24:51.558Z,43.80
2018-12-19T15:27:19.658Z,42.50
2018-12-19T15:29:53.415Z,41.90
2018-12-19T15:32:20.634Z,42.50
2018-12-19T15:34:48.961Z,45.93
2018-12-19T15:37:17.301Z,54.10
2018-12-19T15:39:45.643Z,44.73
2018-12-19T15:42:13.966Z,47.50
2018-12-19T15:44:45.806Z,51.63
2018-12-19T15:47:14.175Z,44.37
2018-12-19T15:49:43.177Z,52.83
2018-12-19T15:52:11.515Z,48.50
2018-12-19T15:54:39.853Z,46.63
2018-12-19T15:57:08.188Z,49.30
2018-12-19T15:59:36.539Z,48.43
2018-12-19T16:02:05.644Z,46.07
2018-12-19T16:04:33.984Z,50.33
2018-12-19T16:07:02.349Z,51.23
2018-12-19T16:09:30.649Z,50.17
2018-12-19T16:11:59.274Z,52.93
2018-12-19T16:14:27.388Z,53.13
2018-12-19T16:16:55.793Z,54.03
2018-12-19T16:19:24.119Z,57.93
2018-12-19T16:21:52.455Z,56.57
2018-12-19T16:24:20.791Z,66.17
2018-12-19T16:26:49.176Z,57.63
2018-12-19T16:29:17.631Z,52.87
2018-12-19T16:31:45.991Z,54.33
2018-12-19T16:34:14.320Z,55.57
2018-12-19T16:36:42.751Z,52.43
2018-12-19T16:39:11.212Z,56.83
2018-12-19T16:41:39.575Z,53.37
2018-12-19T16:44:07.953Z,58.50
2018-12-19T16:46:36.286Z,54.63
2018-12-19T16:49:04.755Z,57.30
2018-12-19T16:51:33.138Z,59.63
2018-12-19T16:54:01.490Z,64.20
2018-12-19T16:56:29.873Z,63.27
2018-12-19T16:58:58.249Z,59.77
2018-12-19T17:01:26.574Z,65.73
2018-12-19T17:03:54.903Z,62.13
2018-12-19T17:06:23.229Z,65.37
2018-12-19T17:08:51.575Z,74.97
2018-12-19T17:11:21.983Z,69.37
2018-12-19T17:13:48.258Z,75.47
2018-12-19T17:16:16.598Z,67.83
2018-12-19T17:18:44.927Z,60.77
2018-12-19T17:21:13.489Z,74.47
2018-12-19T17:23:41.613Z,63.93
2018-12-19T17:26:09.945Z,63.60
2018-12-19T17:28:38.296Z,63.23
2018-12-19T17:31:06.660Z,61.77
2018-12-19T17:33:35.103Z,62.67
2018-12-19T17:36:03.436Z,56.53
2018-12-19T17:38:31.761Z,57.00
2018-12-19T17:41:00.093Z,63.40
2018-12-19T17:43:28.418Z,60.27
2018-12-19T17:45:56.750Z,61.20
2018-12-19T17:48:25.122Z,47.33
2018-12-19T17:50:54.475Z,53.90
2018-12-19T17:53:22.815Z,52.70
2018-12-19T17:55:51.133Z,50.17
2018-12-19T17:58:19.685Z,50.80
2018-12-19T18:00:47.817Z,51.93
2018-12-19T18:03:16.153Z,46.53
2018-12-19T18:05:44.501Z,44.87
2018-12-19T18:08:12.865Z,45.77
2018-12-19T18:10:41.249Z,39.73
2018-12-19T18:13:09.520Z,40.43
2018-12-19T18:15:37.887Z,40.53
2018-12-19T18:18:06.225Z,42.83
2018-12-19T18:20:34.561Z,50.37
2018-12-19T18:23:02.896Z,44.20
2018-12-19T18:25:31.281Z,43.63
2018-12-19T18:27:59.626Z,41.20
2018-12-19T18:30:27.982Z,43.23
2018-12-19T18:32:56.333Z,44.33
2018-12-19T18:35:24.673Z,43.03
2018-12-19T18:37:53.038Z,45.70
2018-12-19T18:40:21.598Z,41.13
2018-12-19T18:42:49.929Z,44.33
2018-12-19T18:45:18.279Z,46.00
2018-12-19T18:47:46.775Z,45.67
2018-12-19T18:50:15.112Z,45.00
2018-12-19T18:52:43.439Z,43.13
2018-12-19T18:55:11.808Z,45.03
2018-12-19T18:57:40.127Z,43.93
2018-12-19T19:00:09.349Z,45.63
2018-12-19T19:02:37.648Z,41.73
2018-12-19T19:05:06.016Z,67.57
2018-12-19T19:07:34.306Z,62.80
2018-12-19T19:10:02.643Z,45.33
2018-12-19T19:12:31.535Z,42.80
2018-12-19T19:14:59.677Z,40.10
2018-12-19T19:17:28.010Z,106.93
2018-12-19T19:19:56.353Z,42.00
2018-12-19T19:22:24.717Z,44.63
2018-12-19T19:24:53.046Z,42.10
2018-12-19T19:27:23.184Z,46.03
2018-12-19T19:29:51.530Z,44.73
2018-12-19T19:32:19.873Z,46.30
2018-12-19T19:34:48.213Z,43.20
2018-12-19T19:37:16.551Z,48.47
2018-12-19T19:39:44.887Z,43.17
2018-12-19T19:42:13.241Z,42.73
2018-12-19T19:44:41.565Z,44.37
2018-12-19T19:47:09.933Z,47.67
2018-12-19T19:49:38.278Z,42.90
2018-12-19T19:52:06.652Z,47.27
2018-12-19T19:54:34.998Z,44.73
2018-12-19T19:57:03.342Z,49.50
2018-12-19T19:59:31.702Z,48.00
2018-12-19T20:02:00.015Z,49.40
2018-12-19T20:04:28.588Z,50.37
2018-12-19T20:07:00.047Z,43.97
2018-12-19T20:09:25.036Z,52.20
2018-12-19T20:11:53.385Z,44.77
2018-12-19T20:14:21.731Z,48.83
2018-12-19T20:16:55.806Z,46.47
2018-12-19T20:19:24.182Z,48.00
2018-12-19T20:21:52.543Z,53.30
2018-12-19T20:24:20.876Z,53.17
2018-12-19T20:26:49.236Z,51.00
2018-12-19T20:29:17.578Z,49.97
2018-12-19T20:31:45.908Z,48.43
2018-12-19T20:34:14.519Z,45.23
2018-12-19T20:36:43.166Z,49.73
2018-12-19T20:39:11.561Z,51.60
2018-12-19T20:41:40.147Z,53.07
2018-12-19T20:44:08.253Z,51.70
2018-12-19T20:46:36.748Z,52.13
2018-12-19T20:49:05.323Z,50.50
2018-12-19T20:51:33.419Z,47.93
2018-12-19T20:54:01.758Z,48.53
2018-12-19T20:56:30.120Z,53.27
2018-12-19T20:58:58.497Z,53.03
2018-12-19T21:01:26.813Z,52.07
2018-12-19T21:03:55.151Z,60.43
2018-12-19T21:06:23.524Z,56.63
2018-12-19T21:08:51.868Z,54.93
2018-12-19T21:11:20.218Z,52.37
2018-12-19T21:13:48.558Z,54.50
2018-12-19T21:16:16.901Z,58.10
2018-12-19T21:18:45.232Z,50.73
2018-12-19T21:21:13.740Z,50.47
2018-12-19T21:23:42.084Z,52.60
2018-12-19T21:26:10.459Z,55.20
2018-12-19T21:28:38.838Z,54.87
2018-12-19T21:31:07.192Z,52.80
2018-12-19T21:33:35.549Z,58.60
2018-12-19T21:36:04.004Z,59.23
2018-12-19T21:38:32.245Z,64.03
2018-12-19T21:41:00.636Z,64.03
2018-12-19T21:43:28.927Z,59.27
2018-12-19T21:45:57.267Z,65.37
2018-12-19T21:48:25.653Z,53.63
2018-12-19T21:50:53.944Z,58.07
2018-12-19T21:53:22.303Z,59.07
2018-12-19T21:55:50.636Z,53.60
2018-12-19T21:58:18.975Z,60.30
2018-12-19T22:00:47.309Z,56.50
2018-12-19T22:03:15.727Z,52.63
2018-12-19T22:05:44.970Z,55.47
2018-12-19T22:08:13.360Z,58.03
2018-12-19T22:10:41.629Z,54.70
2018-12-19T22:13:10.101Z,59.43
2018-12-19T22:15:38.597Z,55.07
2018-12-19T22:18:13.103Z,58.33
2018-12-19T22:20:41.416Z,54.30
2018-12-19T22:23:09.834Z,58.93
2018-12-19T22:25:38.152Z,56.43
2018-12-19T22:28:06.530Z,53.27
2018-12-19T22:30:35.016Z,50.63
2018-12-19T22:33:03.446Z,55.97
2018-12-19T22:35:31.957Z,54.40
2018-12-19T22:38:00.236Z,55.43
2018-12-19T22:40:28.649Z,58.80
2018-12-19T22:42:56.895Z,55.17
2018-12-19T22:45:25.236Z,58.13
2018-12-19T22:47:53.673Z,55.87
2018-12-19T22:50:22.059Z,56.20
2018-12-19T22:52:51.282Z,53.47
2018-12-19T22:55:19.639Z,54.13
2018-12-19T22:57:48.197Z,55.43
2018-12-19T23:00:16.543Z,55.20
2018-12-19T23:02:51.067Z,53.60
2018-12-19T23:05:19.156Z,51.17
2018-12-19T23:07:47.641Z,59.17
2018-12-19T23:10:16.093Z,52.80
2018-12-19T23:12:44.617Z,56.20
2018-12-19T23:15:13.004Z,51.47
2018-12-19T23:17:41.985Z,50.63
2018-12-19T23:20:10.330Z,56.00
2018-12-19T23:22:38.621Z,55.20
2018-12-19T23:25:07.048Z,55.90
2018-12-19T23:27:35.422Z,51.33
2018-12-19T23:30:03.660Z,55.83
2018-12-19T23:32:32.000Z,53.37
2018-12-19T23:35:00.431Z,55.87
2018-12-19T23:37:28.643Z,49.70
2018-12-19T23:39:56.968Z,52.10
2018-12-19T23:42:25.303Z,54.77
2018-12-19T23:44:53.642Z,50.33
2018-12-19T23:47:21.994Z,54.97
2018-12-19T23:49:50.362Z,50.43
2018-12-19T23:52:18.802Z,50.20
2018-12-19T23:54:46.956Z,51.33
2018-12-19T23:57:15.296Z,55.80
2018-12-19T23:59:43.630Z,55.90
